createdAt,value
2024-04-18T00:03:34.033Z,40.84
2024-04-18T00:06:01.151Z,40.68
2024-04-18T00:08:28.236Z,40.67
2024-04-18T00:10:55.359Z,41.20
2024-04-18T00:13:22.448Z,41.16
2024-04-18T00:18:34.073Z,40.75
2024-04-18T00:21:01.226Z,40.71
2024-04-18T00:23:28.307Z,40.98
2024-04-18T00:25:55.409Z,41.08
2024-04-18T00:28:22.476Z,40.64
2024-04-18T00:33:34.115Z,40.75
2024-04-18T00:36:01.188Z,40.75
2024-04-18T00:38:28.292Z,40.46
2024-04-18T00:40:55.387Z,40.68
2024-04-18T00:43:22.460Z,40.89
2024-04-18T00:48:34.003Z,40.30
2024-04-18T00:51:01.160Z,40.74
2024-04-18T00:53:28.241Z,40.92
2024-04-18T00:55:58.112Z,40.73
2024-04-18T00:58:25.184Z,40.75
2024-04-18T01:03:37.081Z,40.85
2024-04-18T01:06:04.240Z,40.56
2024-04-18T01:08:31.352Z,40.95
2024-04-18T01:10:58.395Z,40.77
2024-04-18T01:13:25.494Z,40.74
2024-04-18T01:18:37.277Z,41.01
2024-04-18T01:21:04.398Z,40.92
2024-04-18T01:23:31.502Z,40.30
2024-04-18T01:25:58.595Z,40.58
2024-04-18T01:28:25.692Z,40.54
2024-04-18T01:33:47.791Z,40.65
2024-04-18T01:36:15.063Z,40.54
2024-04-18T01:38:42.139Z,40.31
2024-04-18T01:41:10.068Z,40.85
2024-04-18T01:43:37.185Z,40.39
2024-04-18T01:48:48.918Z,40.45
2024-04-18T01:51:16.981Z,40.76
2024-04-18T01:53:44.101Z,40.59
2024-04-18T01:56:11.199Z,40.50
2024-04-18T01:58:38.292Z,40.43
2024-04-18T02:03:50.052Z,40.66
2024-04-18T02:06:18.082Z,40.72
2024-04-18T02:08:45.264Z,40.67
2024-04-18T02:11:12.406Z,40.81
2024-04-18T02:13:39.533Z,40.92
2024-04-18T02:16:06.648Z,40.14
2024-04-18T02:18:33.938Z,40.95
2024-04-18T02:21:01.157Z,40.38
2024-04-18T02:23:28.303Z,40.61
2024-04-18T02:25:55.399Z,40.68
2024-04-18T02:28:22.512Z,40.63
2024-04-18T02:30:49.638Z,40.47
2024-04-18T02:33:17.381Z,40.59
2024-04-18T02:35:44.793Z,40.34
2024-04-18T02:38:11.910Z,40.52
2024-04-18T02:40:39.011Z,40.31
2024-04-18T02:43:06.103Z,40.36
2024-04-18T02:45:33.270Z,40.71
2024-04-18T02:48:00.410Z,40.65
2024-04-18T02:50:27.559Z,40.29
2024-04-18T02:52:54.652Z,40.59
2024-04-18T02:55:21.768Z,40.11
2024-04-18T02:57:49.064Z,40.25
2024-04-18T03:00:17.097Z,40.19
2024-04-18T03:02:44.206Z,40.85
2024-04-18T03:05:11.290Z,40.18
2024-04-18T03:07:38.401Z,40.46
2024-04-18T03:10:05.510Z,40.74
2024-04-18T03:12:32.618Z,40.27
2024-04-18T03:14:59.709Z,40.33
2024-04-18T03:17:26.835Z,40.55
2024-04-18T03:19:53.979Z,40.71
2024-04-18T03:22:21.968Z,39.82
2024-04-18T03:24:49.134Z,39.78
2024-04-18T03:27:16.328Z,40.03
2024-04-18T03:29:43.416Z,40.45
2024-04-18T03:32:10.497Z,40.19
2024-04-18T03:34:37.562Z,40.44
2024-04-18T03:37:04.722Z,40.50
2024-04-18T03:39:31.837Z,40.44
2024-04-18T03:41:58.936Z,40.65
2024-04-18T03:44:26.046Z,40.09
2024-04-18T03:46:53.135Z,40.58
2024-04-18T03:52:04.761Z,40.44
2024-04-18T03:54:39.850Z,40.23
2024-04-18T03:57:14.248Z,39.62
2024-04-18T03:59:41.320Z,39.55
2024-04-18T04:02:08.470Z,39.24
2024-04-18T04:07:31.160Z,39.18
2024-04-18T04:09:58.281Z,38.96
2024-04-18T04:12:25.460Z,38.77
2024-04-18T04:14:53.447Z,38.74
2024-04-18T04:17:20.531Z,38.92
2024-04-18T04:22:33.576Z,39.29
2024-04-18T04:25:01.767Z,38.81
2024-04-18T04:27:28.909Z,38.89
2024-04-18T04:29:56.354Z,38.91
2024-04-18T04:32:23.627Z,38.54
2024-04-18T04:37:35.702Z,38.95
2024-04-18T04:40:02.860Z,38.82
2024-04-18T04:42:32.837Z,38.69
2024-04-18T04:44:59.979Z,38.83
2024-04-18T04:47:27.960Z,38.48
2024-04-18T04:52:40.654Z,38.53
2024-04-18T04:55:07.860Z,38.30
2024-04-18T04:57:35.028Z,38.30
2024-04-18T05:00:03.055Z,38.31
2024-04-18T05:02:30.330Z,38.63
2024-04-18T05:07:42.004Z,39.17
2024-04-18T05:10:09.144Z,38.80
2024-04-18T05:12:37.175Z,38.85
2024-04-18T05:15:04.314Z,38.88
2024-04-18T05:17:32.568Z,39.11
2024-04-18T05:22:44.407Z,39.26
2024-04-18T05:25:14.088Z,39.27
2024-04-18T05:27:41.477Z,38.99
2024-04-18T05:30:08.635Z,39.72
2024-04-18T05:32:35.780Z,39.63
2024-04-18T05:37:47.407Z,39.29
2024-04-18T05:40:14.502Z,39.27
2024-04-18T05:42:41.609Z,39.17
2024-04-18T05:45:08.697Z,39.67
2024-04-18T05:47:35.816Z,38.87
2024-04-18T05:52:47.372Z,39.18
2024-04-18T05:55:14.500Z,39.00
2024-04-18T05:57:41.726Z,38.89
2024-04-18T06:00:08.836Z,39.24
2024-04-18T06:02:36.005Z,38.99
2024-04-18T06:07:47.445Z,39.46
2024-04-18T06:10:14.522Z,38.84
2024-04-18T06:12:41.715Z,38.96
2024-04-18T06:15:09.722Z,39.54
2024-04-18T06:17:36.827Z,39.06
2024-04-18T06:22:48.321Z,39.73
2024-04-18T06:25:16.303Z,39.81
2024-04-18T06:27:44.316Z,39.83
2024-04-18T06:30:12.302Z,39.20
2024-04-18T06:32:39.422Z,39.42
2024-04-18T06:37:53.057Z,39.10
2024-04-18T06:40:20.999Z,38.82
2024-04-18T06:42:48.199Z,39.51
2024-04-18T06:45:15.353Z,39.31
2024-04-18T06:47:42.479Z,39.16
2024-04-18T06:52:55.081Z,39.59
2024-04-18T06:55:22.200Z,39.14
2024-04-18T06:57:50.219Z,39.56
2024-04-18T07:00:17.355Z,39.23
2024-04-18T07:02:44.624Z,39.26
2024-04-18T07:07:56.257Z,39.43
2024-04-18T07:10:24.241Z,39.50
2024-04-18T07:12:51.542Z,38.78
2024-04-18T07:15:19.600Z,39.49
2024-04-18T07:17:46.840Z,39.10
2024-04-18T07:22:58.638Z,38.77
2024-04-18T07:25:25.733Z,39.45
2024-04-18T07:27:52.941Z,39.07
2024-04-18T07:30:20.110Z,39.27
2024-04-18T07:32:47.288Z,38.93
2024-04-18T07:37:58.985Z,38.86
2024-04-18T07:40:26.053Z,39.49
2024-04-18T07:42:53.138Z,39.76
2024-04-18T07:45:20.319Z,39.30
2024-04-18T07:47:47.512Z,39.20
2024-04-18T07:53:04.118Z,38.76
2024-04-18T07:55:36.720Z,39.21
2024-04-18T07:58:04.611Z,38.75
2024-04-18T08:00:34.349Z,39.17
2024-04-18T08:03:04.735Z,38.96
2024-04-18T08:08:30.647Z,39.50
2024-04-18T08:11:16.357Z,39.09
2024-04-18T08:13:50.057Z,39.07
2024-04-18T08:16:19.950Z,39.04
2024-04-18T08:18:47.171Z,39.06
2024-04-18T08:23:58.731Z,38.73
2024-04-18T08:26:25.862Z,39.22
2024-04-18T08:28:52.955Z,39.29
2024-04-18T08:31:20.093Z,38.64
2024-04-18T08:33:54.355Z,39.06
2024-04-18T08:39:10.740Z,38.91
2024-04-18T08:41:41.073Z,38.95
2024-04-18T08:44:10.458Z,39.14
2024-04-18T08:46:37.518Z,39.33
2024-04-18T08:49:04.709Z,38.76
2024-04-18T08:54:17.317Z,38.98
2024-04-18T08:56:44.422Z,39.08
2024-04-18T08:59:12.396Z,38.97
2024-04-18T09:01:39.522Z,38.85
2024-04-18T09:04:06.667Z,39.41
2024-04-18T09:09:18.523Z,39.14
2024-04-18T09:11:45.675Z,39.04
2024-04-18T09:14:12.806Z,39.34
2024-04-18T09:16:39.889Z,39.03
2024-04-18T09:19:08.139Z,38.83
2024-04-18T09:24:20.910Z,39.11
2024-04-18T09:26:48.006Z,39.02
2024-04-18T09:29:15.973Z,39.02
2024-04-18T09:31:43.787Z,39.19
2024-04-18T09:34:11.070Z,39.23
2024-04-18T09:39:22.729Z,39.61
2024-04-18T09:41:49.929Z,39.24
2024-04-18T09:44:17.060Z,39.42
2024-04-18T09:46:44.153Z,39.15
2024-04-18T09:49:11.384Z,39.46
2024-04-18T09:54:23.063Z,39.19
2024-04-18T09:56:50.149Z,38.70
2024-04-18T09:59:18.155Z,38.68
2024-04-18T10:01:45.267Z,37.88
2024-04-18T10:04:12.594Z,37.34
2024-04-18T10:06:39.912Z,37.48
2024-04-18T10:09:07.246Z,37.40
2024-04-18T10:11:34.463Z,37.74
2024-04-18T10:14:01.639Z,37.77
2024-04-18T10:16:28.698Z,38.23
2024-04-18T10:18:55.962Z,37.93
2024-04-18T10:21:32.075Z,38.36
2024-04-18T10:24:05.297Z,37.91
2024-04-18T10:26:32.504Z,38.31
2024-04-18T10:28:59.589Z,38.46
2024-04-18T10:31:26.742Z,38.95
2024-04-18T10:33:53.896Z,38.36
2024-04-18T10:36:21.919Z,38.59
2024-04-18T10:38:49.075Z,38.91
2024-04-18T10:41:16.221Z,38.72
2024-04-18T10:43:43.276Z,38.59
2024-04-18T10:46:10.401Z,39.05
2024-04-18T10:48:37.572Z,39.32
2024-04-18T10:51:04.769Z,38.87
2024-04-18T10:53:31.871Z,38.93
2024-04-18T10:55:59.214Z,38.49
2024-04-18T10:58:26.319Z,38.42
2024-04-18T11:00:53.470Z,38.45
2024-04-18T11:03:20.633Z,39.01
2024-04-18T11:05:47.715Z,38.75
2024-04-18T11:08:14.848Z,38.79
2024-04-18T11:10:41.943Z,38.32
2024-04-18T11:13:09.071Z,39.06
2024-04-18T11:15:36.219Z,39.67
2024-04-18T11:18:03.774Z,39.05
2024-04-18T11:20:32.118Z,39.09
2024-04-18T11:23:08.960Z,38.71
2024-04-18T11:25:40.933Z,38.99
2024-04-18T11:28:08.344Z,39.11
2024-04-18T11:30:35.786Z,38.46
2024-04-18T11:33:03.297Z,38.62
2024-04-18T11:35:30.523Z,38.49
2024-04-18T11:37:57.586Z,38.75
2024-04-18T11:40:24.630Z,38.42
2024-04-18T11:42:51.683Z,38.51
2024-04-18T11:45:18.994Z,38.54
2024-04-18T11:47:46.346Z,38.74
2024-04-18T11:50:13.530Z,38.85
2024-04-18T11:52:40.590Z,39.21
2024-04-18T11:57:55.182Z,38.88
2024-04-18T12:00:22.307Z,38.60
2024-04-18T12:02:49.438Z,38.82
2024-04-18T12:05:16.616Z,38.93
2024-04-18T12:07:43.709Z,38.65
2024-04-18T12:12:55.292Z,38.91
2024-04-18T12:15:22.333Z,38.95
2024-04-18T12:17:49.502Z,38.61
2024-04-18T12:20:16.583Z,39.05
2024-04-18T12:22:43.640Z,38.83
2024-04-18T12:27:55.237Z,38.92
2024-04-18T12:30:22.338Z,38.70
2024-04-18T12:32:49.497Z,38.70
2024-04-18T12:35:16.650Z,39.08
2024-04-18T12:37:43.697Z,38.80
2024-04-18T12:42:55.409Z,38.92
2024-04-18T12:45:22.494Z,38.80
2024-04-18T12:47:49.706Z,38.82
2024-04-18T12:50:16.846Z,39.07
2024-04-18T12:52:43.946Z,38.75
2024-04-18T12:57:55.513Z,39.19
2024-04-18T13:00:22.633Z,36.95
2024-04-18T13:02:49.794Z,38.25
2024-04-18T13:05:16.918Z,38.27
2024-04-18T13:07:43.990Z,38.31
2024-04-18T13:12:55.873Z,38.44
2024-04-18T13:15:25.772Z,38.60
2024-04-18T13:17:52.861Z,38.24
2024-04-18T13:20:19.949Z,38.05
2024-04-18T13:22:47.044Z,38.07
2024-04-18T13:28:01.187Z,38.32
2024-04-18T13:30:28.316Z,37.98
2024-04-18T13:32:55.447Z,38.25
2024-04-18T13:35:22.533Z,38.26
2024-04-18T13:37:52.423Z,37.82
2024-04-18T13:43:03.783Z,38.58
2024-04-18T13:45:30.977Z,38.28
2024-04-18T13:47:58.194Z,38.40
2024-04-18T13:50:25.329Z,37.94
2024-04-18T13:52:52.383Z,37.59
2024-04-18T13:58:06.567Z,38.19
2024-04-18T14:00:33.704Z,38.17
2024-04-18T14:03:03.652Z,37.90
2024-04-18T14:05:33.590Z,38.07
2024-04-18T14:08:03.462Z,38.20
2024-04-18T14:13:17.723Z,38.23
2024-04-18T14:15:44.835Z,38.56
2024-04-18T14:18:12.065Z,38.49
2024-04-18T14:20:41.950Z,38.00
2024-04-18T14:23:09.010Z,37.80
2024-04-18T14:28:28.091Z,38.07
2024-04-18T14:31:00.497Z,38.43
2024-04-18T14:33:30.467Z,38.33
2024-04-18T14:35:57.696Z,38.34
2024-04-18T14:38:24.756Z,38.37
2024-04-18T14:43:39.211Z,38.32
2024-04-18T14:46:06.322Z,38.06
2024-04-18T14:48:33.413Z,37.80
2024-04-18T14:51:00.523Z,38.01
2024-04-18T14:53:27.644Z,38.11
2024-04-18T14:58:44.724Z,37.96
2024-04-18T15:01:11.792Z,37.88
2024-04-18T15:03:41.772Z,37.98
2024-04-18T15:06:11.678Z,37.86
2024-04-18T15:08:42.031Z,38.11
2024-04-18T15:13:59.255Z,38.18
2024-04-18T15:16:29.114Z,38.28
2024-04-18T15:18:59.054Z,38.32
2024-04-18T15:21:28.953Z,38.11
2024-04-18T15:23:58.823Z,37.83
2024-04-18T15:29:10.380Z,38.09
2024-04-18T15:31:40.265Z,37.89
2024-04-18T15:34:07.377Z,38.10
2024-04-18T15:36:37.305Z,38.34
2024-04-18T15:39:07.219Z,38.54
2024-04-18T15:44:18.639Z,38.50
2024-04-18T15:46:45.718Z,38.33
2024-04-18T15:49:12.908Z,38.42
2024-04-18T15:51:42.942Z,37.99
2024-04-18T15:54:10.237Z,38.47
2024-04-18T15:59:24.970Z,38.64
2024-04-18T16:01:52.043Z,38.05
2024-04-18T16:04:19.165Z,38.20
2024-04-18T16:06:46.235Z,38.48
2024-04-18T16:09:13.347Z,38.07
2024-04-18T16:14:27.548Z,38.70
2024-04-18T16:16:54.632Z,38.63
2024-04-18T16:19:25.387Z,38.57
2024-04-18T16:21:56.615Z,38.38
2024-04-18T16:24:26.512Z,39.07
2024-04-18T16:29:41.113Z,38.40
2024-04-18T16:32:08.204Z,38.44
2024-04-18T16:34:36.991Z,38.34
2024-04-18T16:37:12.781Z,38.08
2024-04-18T16:39:45.045Z,38.46
2024-04-18T16:44:59.340Z,38.18
2024-04-18T16:47:26.415Z,38.19
2024-04-18T16:49:56.293Z,38.16
2024-04-18T16:52:23.393Z,38.56
2024-04-18T16:54:50.445Z,38.47
2024-04-18T17:00:02.034Z,38.52
2024-04-18T17:02:31.978Z,38.27
2024-04-18T17:04:59.191Z,38.17
2024-04-18T17:07:26.240Z,38.14
2024-04-18T17:09:53.323Z,38.04
2024-04-18T17:15:05.151Z,38.17
2024-04-18T17:17:32.398Z,38.32
2024-04-18T17:19:59.560Z,38.21
2024-04-18T17:22:26.675Z,37.71
2024-04-18T17:24:53.793Z,37.87
2024-04-18T17:30:06.414Z,38.54
2024-04-18T17:32:33.501Z,37.94
2024-04-18T17:35:00.672Z,37.55
2024-04-18T17:37:27.803Z,38.14
2024-04-18T17:39:54.915Z,37.83
2024-04-18T17:45:06.593Z,38.09
2024-04-18T17:47:33.811Z,37.98
2024-04-18T17:50:00.990Z,38.01
2024-04-18T17:52:28.129Z,38.47
2024-04-18T17:54:58.886Z,38.23
2024-04-18T18:00:11.723Z,38.11
2024-04-18T18:02:38.824Z,38.36
2024-04-18T18:05:05.934Z,38.64
2024-04-18T18:07:33.166Z,38.79
2024-04-18T18:10:00.380Z,38.74
2024-04-18T18:15:11.969Z,38.33
2024-04-18T18:17:40.283Z,38.35
2024-04-18T18:20:08.466Z,38.19
2024-04-18T18:22:35.559Z,38.35
2024-04-18T18:25:02.661Z,38.57
2024-04-18T18:27:29.856Z,38.71
2024-04-18T18:29:56.989Z,38.67
2024-04-18T18:32:24.100Z,38.52
2024-04-18T18:34:51.181Z,38.39
2024-04-18T18:37:18.294Z,38.44
2024-04-18T18:39:45.561Z,38.72
2024-04-18T18:42:12.754Z,38.47
2024-04-18T18:44:40.069Z,38.76
2024-04-18T18:47:07.230Z,39.08
2024-04-18T18:49:34.333Z,38.56
2024-04-18T18:52:01.471Z,38.60
2024-04-18T18:54:28.577Z,38.86
2024-04-18T18:56:55.686Z,38.95
2024-04-18T18:59:22.740Z,39.04
2024-04-18T19:01:49.822Z,38.83
2024-04-18T19:04:17.212Z,38.56
2024-04-18T19:06:44.520Z,38.78
2024-04-18T19:09:11.595Z,38.85
2024-04-18T19:11:38.737Z,38.34
2024-04-18T19:14:05.843Z,38.56
2024-04-18T19:16:32.947Z,38.91
2024-04-18T19:19:00.046Z,38.75
2024-04-18T19:21:27.188Z,38.70
2024-04-18T19:23:54.451Z,38.83
2024-04-18T19:26:21.574Z,38.71
2024-04-18T19:28:48.685Z,38.82
2024-04-18T19:31:15.745Z,39.04
2024-04-18T19:33:43.020Z,38.97
2024-04-18T19:36:10.204Z,38.32
2024-04-18T19:38:37.271Z,38.81
2024-04-18T19:41:04.381Z,38.56
2024-04-18T19:43:31.500Z,39.02
2024-04-18T19:45:58.610Z,38.93
2024-04-18T19:48:25.932Z,38.57
2024-04-18T19:50:53.104Z,39.10
2024-04-18T19:53:20.207Z,38.47
2024-04-18T19:55:47.324Z,38.83
2024-04-18T19:58:14.427Z,38.95
2024-04-18T20:03:35.979Z,38.59
2024-04-18T20:06:03.144Z,38.74
2024-04-18T20:08:30.218Z,39.10
2024-04-18T20:10:57.334Z,38.68
2024-04-18T20:13:24.401Z,39.01
2024-04-18T20:18:36.184Z,38.86
2024-04-18T20:21:03.384Z,38.60
2024-04-18T20:23:30.542Z,38.53
2024-04-18T20:25:57.652Z,39.04
2024-04-18T20:28:24.740Z,38.63
2024-04-18T20:33:36.399Z,38.61
2024-04-18T20:36:03.592Z,39.00
2024-04-18T20:38:30.672Z,38.77
2024-04-18T20:40:57.723Z,38.86
2024-04-18T20:43:24.883Z,38.89
2024-04-18T20:48:36.848Z,38.79
2024-04-18T20:51:03.976Z,39.01
2024-04-18T20:53:31.130Z,39.09
2024-04-18T20:55:58.198Z,38.35
2024-04-18T20:58:25.277Z,38.79
2024-04-18T21:03:37.216Z,38.66
2024-04-18T21:06:04.396Z,38.64
2024-04-18T21:08:31.487Z,39.12
2024-04-18T21:10:58.589Z,38.11
2024-04-18T21:13:25.716Z,38.59
2024-04-18T21:18:37.832Z,39.00
2024-04-18T21:21:05.004Z,38.81
2024-04-18T21:23:32.134Z,38.66
2024-04-18T21:25:59.321Z,39.07
2024-04-18T21:28:26.529Z,38.79
2024-04-18T21:33:38.311Z,38.40
2024-04-18T21:36:05.601Z,38.64
2024-04-18T21:38:39.475Z,38.69
2024-04-18T21:41:13.666Z,38.99
2024-04-18T21:43:40.841Z,38.66
2024-04-18T21:48:52.618Z,38.54
2024-04-18T21:51:19.923Z,38.44
2024-04-18T21:53:47.047Z,38.66
2024-04-18T21:56:14.124Z,38.44
2024-04-18T21:58:41.231Z,38.88
2024-04-18T22:03:53.137Z,38.65
2024-04-18T22:06:20.345Z,38.85
2024-04-18T22:08:47.651Z,38.62
2024-04-18T22:11:15.628Z,38.85
2024-04-18T22:13:42.723Z,38.42
2024-04-18T22:18:54.625Z,38.72
2024-04-18T22:21:22.711Z,38.72
2024-04-18T22:23:52.166Z,38.73
2024-04-18T22:26:19.594Z,38.86
2024-04-18T22:28:46.710Z,38.35
2024-04-18T22:33:58.449Z,38.34
2024-04-18T22:36:25.666Z,38.54
2024-04-18T22:38:52.775Z,39.01
2024-04-18T22:41:19.927Z,38.82
2024-04-18T22:43:46.998Z,38.85
2024-04-18T22:48:58.969Z,38.40
2024-04-18T22:51:26.114Z,38.66
2024-04-18T22:53:53.241Z,38.47
2024-04-18T22:56:20.341Z,38.88
2024-04-18T22:58:47.448Z,38.47
2024-04-18T23:03:59.241Z,39.02
2024-04-18T23:06:26.427Z,38.84
2024-04-18T23:08:53.559Z,38.88
2024-04-18T23:11:20.939Z,38.96
2024-04-18T23:13:48.019Z,38.91
2024-04-18T23:18:59.481Z,38.77
2024-04-18T23:21:26.679Z,38.93
2024-04-18T23:23:53.808Z,38.89
2024-04-18T23:26:20.952Z,38.88
2024-04-18T23:28:48.086Z,38.81
2024-04-18T23:34:00.585Z,38.75
2024-04-18T23:36:27.747Z,38.90
2024-04-18T23:38:54.862Z,38.88
2024-04-18T23:41:21.954Z,38.66
2024-04-18T23:43:49.040Z,38.97
2024-04-18T23:46:16.148Z,38.78
2024-04-18T23:49:11.921Z,38.88
2024-04-18T23:51:39.007Z,39.23
2024-04-18T23:54:06.154Z,38.46
2024-04-18T23:56:33.247Z,38.55
2024-04-18T23:59:00.378Z,38.69
